sensor_id;sensor_type;location;lat;lon;timestamp;temperature;humidity
13326;DHT22;6732;51.044;3.746;2022-11-18T00:00:49;10.80;99.90
13326;DHT22;6732;51.044;3.746;2022-11-18T00:03:15;10.70;99.90
13326;DHT22;6732;51.044;3.746;2022-11-18T00:05:41;10.70;99.90
13326;DHT22;6732;51.044;3.746;2022-11-18T00:08:07;10.70;99.90
13326;DHT22;6732;51.044;3.746;2022-11-18T00:10:37;10.70;99.90
13326;DHT22;6732;51.044;3.746;2022-11-18T00:13:03;10.70;99.90
13326;DHT22;6732;51.044;3.746;2022-11-18T00:15:47;10.70;99.90
13326;DHT22;6732;51.044;3.746;2022-11-18T00:18:13;10.70;99.90
13326;DHT22;6732;51.044;3.746;2022-11-18T00:20:39;10.70;99.90
13326;DHT22;6732;51.044;3.746;2022-11-18T00:23:05;10.70;99.90
13326;DHT22;6732;51.044;3.746;2022-11-18T00:25:32;10.70;99.90
13326;DHT22;6732;51.044;3.746;2022-11-18T00:27:58;10.70;99.90
13326;DHT22;6732;51.044;3.746;2022-11-18T00:30:24;10.70;99.90
13326;DHT22;6732;51.044;3.746;2022-11-18T00:32:50;10.70;99.90
13326;DHT22;6732;51.044;3.746;2022-11-18T00:35:16;10.70;99.90
13326;DHT22;6732;51.044;3.746;2022-11-18T00:37:41;10.70;99.90
13326;DHT22;6732;51.044;3.746;2022-11-18T00:40:08;10.70;99.90
13326;DHT22;6732;51.044;3.746;2022-11-18T00:42:34;10.70;99.90
13326;DHT22;6732;51.044;3.746;2022-11-18T00:45:19;10.70;99.90
13326;DHT22;6732;51.044;3.746;2022-11-18T00:47:45;10.70;99.90
13326;DHT22;6732;51.044;3.746;2022-11-18T00:50:11;10.70;99.90
13326;DHT22;6732;51.044;3.746;2022-11-18T00:52:37;10.70;99.90
13326;DHT22;6732;51.044;3.746;2022-11-18T00:55:04;10.70;99.90
13326;DHT22;6732;51.044;3.746;2022-11-18T00:57:30;10.70;99.90
13326;DHT22;6732;51.044;3.746;2022-11-18T00:59:56;10.60;99.90
13326;DHT22;6732;51.044;3.746;2022-11-18T01:02:22;10.60;99.90
13326;DHT22;6732;51.044;3.746;2022-11-18T01:04:48;10.60;99.90
13326;DHT22;6732;51.044;3.746;2022-11-18T01:07:14;10.60;99.90
13326;DHT22;6732;51.044;3.746;2022-11-18T01:09:39;10.60;99.90
13326;DHT22;6732;51.044;3.746;2022-11-18T01:12:05;10.60;99.90
13326;DHT22;6732;51.044;3.746;2022-11-18T01:14:50;10.60;99.90
13326;DHT22;6732;51.044;3.746;2022-11-18T01:17:16;10.60;99.90
13326;DHT22;6732;51.044;3.746;2022-11-18T01:19:42;10.60;99.90
13326;DHT22;6732;51.044;3.746;2022-11-18T01:22:08;10.60;99.90
13326;DHT22;6732;51.044;3.746;2022-11-18T01:24:34;10.60;99.90
13326;DHT22;6732;51.044;3.746;2022-11-18T01:27:00;10.60;99.90
13326;DHT22;6732;51.044;3.746;2022-11-18T01:29:27;10.60;99.90
13326;DHT22;6732;51.044;3.746;2022-11-18T01:31:52;10.60;99.90
13326;DHT22;6732;51.044;3.746;2022-11-18T01:34:18;10.60;99.90
13326;DHT22;6732;51.044;3.746;2022-11-18T01:36:44;10.60;99.90
13326;DHT22;6732;51.044;3.746;2022-11-18T01:39:10;10.60;99.90
13326;DHT22;6732;51.044;3.746;2022-11-18T01:41:36;10.60;99.90
13326;DHT22;6732;51.044;3.746;2022-11-18T01:44:50;10.60;99.90
13326;DHT22;6732;51.044;3.746;2022-11-18T01:46:50;10.60;99.90
13326;DHT22;6732;51.044;3.746;2022-11-18T01:49:16;10.50;99.90
13326;DHT22;6732;51.044;3.746;2022-11-18T01:51:48;10.50;99.90
13326;DHT22;6732;51.044;3.746;2022-11-18T01:54:21;10.50;99.90
13326;DHT22;6732;51.044;3.746;2022-11-18T01:56:52;10.50;99.90
13326;DHT22;6732;51.044;3.746;2022-11-18T01:59:21;10.50;99.90
13326;DHT22;6732;51.044;3.746;2022-11-18T02:01:48;10.50;99.90
13326;DHT22;6732;51.044;3.746;2022-11-18T02:04:14;10.50;99.90
13326;DHT22;6732;51.044;3.746;2022-11-18T02:06:41;10.50;99.90
13326;DHT22;6732;51.044;3.746;2022-11-18T02:09:08;10.50;99.90
13326;DHT22;6732;51.044;3.746;2022-11-18T02:11:34;10.50;99.90
13326;DHT22;6732;51.044;3.746;2022-11-18T02:14:19;10.50;99.90
13326;DHT22;6732;51.044;3.746;2022-11-18T02:24:58;10.40;99.90
13326;DHT22;6732;51.044;3.746;2022-11-18T02:30:08;10.40;99.90
13326;DHT22;6732;51.044;3.746;2022-11-18T02:32:55;10.40;99.90
13326;DHT22;6732;51.044;3.746;2022-11-18T02:35:26;10.40;99.90
13326;DHT22;6732;51.044;3.746;2022-11-18T02:38:12;10.40;99.90
13326;DHT22;6732;51.044;3.746;2022-11-18T02:40:48;10.40;99.90
13326;DHT22;6732;51.044;3.746;2022-11-18T02:43:20;10.40;99.90
13326;DHT22;6732;51.044;3.746;2022-11-18T02:45:53;10.40;99.90
13326;DHT22;6732;51.044;3.746;2022-11-18T02:48:23;10.40;99.90
13326;DHT22;6732;51.044;3.746;2022-11-18T02:50:50;10.30;99.90
13326;DHT22;6732;51.044;3.746;2022-11-18T02:53:19;10.40;99.90
13326;DHT22;6732;51.044;3.746;2022-11-18T02:55:46;10.30;99.90
13326;DHT22;6732;51.044;3.746;2022-11-18T02:58:16;10.30;99.90
13326;DHT22;6732;51.044;3.746;2022-11-18T03:00:44;10.30;99.90
13326;DHT22;6732;51.044;3.746;2022-11-18T03:03:30;10.30;99.90
13326;DHT22;6732;51.044;3.746;2022-11-18T03:09:17;10.30;99.90
13326;DHT22;6732;51.044;3.746;2022-11-18T03:11:53;10.30;99.90
13326;DHT22;6732;51.044;3.746;2022-11-18T03:17:33;10.30;99.90
13326;DHT22;6732;51.044;3.746;2022-11-18T03:20:11;10.30;99.90
13326;DHT22;6732;51.044;3.746;2022-11-18T03:25:51;10.30;99.90
13326;DHT22;6732;51.044;3.746;2022-11-18T03:28:26;10.30;99.90
13326;DHT22;6732;51.044;3.746;2022-11-18T03:30:59;10.20;99.90
13326;DHT22;6732;51.044;3.746;2022-11-18T03:33:41;10.30;99.90
13326;DHT22;6732;51.044;3.746;2022-11-18T03:36:08;10.30;99.90
13326;DHT22;6732;51.044;3.746;2022-11-18T03:38:39;10.30;99.90
13326;DHT22;6732;51.044;3.746;2022-11-18T03:41:09;10.20;99.90
13326;DHT22;6732;51.044;3.746;2022-11-18T03:43:39;10.20;99.90
13326;DHT22;6732;51.044;3.746;2022-11-18T03:46:28;10.20;99.90
13326;DHT22;6732;51.044;3.746;2022-11-18T03:48:57;10.20;99.90
13326;DHT22;6732;51.044;3.746;2022-11-18T03:51:38;10.20;99.90
13326;DHT22;6732;51.044;3.746;2022-11-18T03:54:11;10.20;99.90
13326;DHT22;6732;51.044;3.746;2022-11-18T03:56:43;10.20;99.90
13326;DHT22;6732;51.044;3.746;2022-11-18T03:59:20;10.20;99.90
13326;DHT22;6732;51.044;3.746;2022-11-18T04:01:56;10.20;99.90
13326;DHT22;6732;51.044;3.746;2022-11-18T04:04:25;10.20;99.90
13326;DHT22;6732;51.044;3.746;2022-11-18T04:07:14;10.20;99.90
13326;DHT22;6732;51.044;3.746;2022-11-18T04:10:06;10.20;99.90
13326;DHT22;6732;51.044;3.746;2022-11-18T04:12:50;10.20;99.90
13326;DHT22;6732;51.044;3.746;2022-11-18T04:15:18;10.10;99.90
13326;DHT22;6732;51.044;3.746;2022-11-18T04:17:45;10.10;99.90
13326;DHT22;6732;51.044;3.746;2022-11-18T04:20:21;10.20;99.90
13326;DHT22;6732;51.044;3.746;2022-11-18T04:22:47;10.10;99.90
13326;DHT22;6732;51.044;3.746;2022-11-18T04:25:14;10.10;99.90
13326;DHT22;6732;51.044;3.746;2022-11-18T04:27:40;10.10;99.90
13326;DHT22;6732;51.044;3.746;2022-11-18T04:30:06;10.10;99.90
13326;DHT22;6732;51.044;3.746;2022-11-18T04:32:33;10.10;99.90
13326;DHT22;6732;51.044;3.746;2022-11-18T04:34:59;10.10;99.90
13326;DHT22;6732;51.044;3.746;2022-11-18T04:37:25;10.10;99.90
13326;DHT22;6732;51.044;3.746;2022-11-18T04:39:51;10.10;99.90
13326;DHT22;6732;51.044;3.746;2022-11-18T04:42:18;10.10;99.90
13326;DHT22;6732;51.044;3.746;2022-11-18T04:44:44;10.10;99.90
13326;DHT22;6732;51.044;3.746;2022-11-18T04:47:10;10.10;99.90
13326;DHT22;6732;51.044;3.746;2022-11-18T04:49:36;10.10;99.90
13326;DHT22;6732;51.044;3.746;2022-11-18T04:52:02;10.10;99.90
13326;DHT22;6732;51.044;3.746;2022-11-18T04:54:29;10.10;99.90
13326;DHT22;6732;51.044;3.746;2022-11-18T04:56:55;10.10;99.90
13326;DHT22;6732;51.044;3.746;2022-11-18T04:59:26;10.10;99.90
13326;DHT22;6732;51.044;3.746;2022-11-18T05:01:53;10.10;99.90
13326;DHT22;6732;51.044;3.746;2022-11-18T05:04:24;10.00;99.90
13326;DHT22;6732;51.044;3.746;2022-11-18T05:06:51;10.00;99.90
13326;DHT22;6732;51.044;3.746;2022-11-18T05:09:18;10.00;99.90
13326;DHT22;6732;51.044;3.746;2022-11-18T05:11:44;10.00;99.90
13326;DHT22;6732;51.044;3.746;2022-11-18T05:14:29;10.00;99.90
13326;DHT22;6732;51.044;3.746;2022-11-18T05:16:58;10.00;99.90
13326;DHT22;6732;51.044;3.746;2022-11-18T05:19:24;10.00;99.90
13326;DHT22;6732;51.044;3.746;2022-11-18T05:21:50;10.00;99.90
13326;DHT22;6732;51.044;3.746;2022-11-18T05:24:16;10.00;99.90
13326;DHT22;6732;51.044;3.746;2022-11-18T05:26:42;10.00;99.90
13326;DHT22;6732;51.044;3.746;2022-11-18T05:29:09;10.00;99.90
13326;DHT22;6732;51.044;3.746;2022-11-18T05:31:35;10.00;99.90
13326;DHT22;6732;51.044;3.746;2022-11-18T05:34:01;10.00;99.90
13326;DHT22;6732;51.044;3.746;2022-11-18T05:36:27;10.00;99.90
13326;DHT22;6732;51.044;3.746;2022-11-18T05:38:53;10.00;99.90
13326;DHT22;6732;51.044;3.746;2022-11-18T05:41:22;10.00;99.90
13326;DHT22;6732;51.044;3.746;2022-11-18T05:44:07;10.00;99.90
13326;DHT22;6732;51.044;3.746;2022-11-18T05:46:33;10.00;99.90
13326;DHT22;6732;51.044;3.746;2022-11-18T05:48:59;10.00;99.90
13326;DHT22;6732;51.044;3.746;2022-11-18T05:51:24;10.00;99.90
13326;DHT22;6732;51.044;3.746;2022-11-18T05:53:51;10.00;99.90
13326;DHT22;6732;51.044;3.746;2022-11-18T05:56:28;9.90;99.90
13326;DHT22;6732;51.044;3.746;2022-11-18T05:58:56;10.00;99.90
13326;DHT22;6732;51.044;3.746;2022-11-18T06:01:26;10.00;99.90
13326;DHT22;6732;51.044;3.746;2022-11-18T06:03:53;10.00;99.90
13326;DHT22;6732;51.044;3.746;2022-11-18T06:06:20;9.90;99.90
13326;DHT22;6732;51.044;3.746;2022-11-18T06:09:00;10.00;99.90
13326;DHT22;6732;51.044;3.746;2022-11-18T06:11:26;10.00;99.90
13326;DHT22;6732;51.044;3.746;2022-11-18T06:14:29;9.90;99.90
13326;DHT22;6732;51.044;3.746;2022-11-18T06:17:02;10.00;99.90
13326;DHT22;6732;51.044;3.746;2022-11-18T06:19:30;10.00;99.90
13326;DHT22;6732;51.044;3.746;2022-11-18T06:21:57;10.00;99.90
13326;DHT22;6732;51.044;3.746;2022-11-18T06:24:23;10.00;99.90
13326;DHT22;6732;51.044;3.746;2022-11-18T06:26:50;10.00;99.90
13326;DHT22;6732;51.044;3.746;2022-11-18T06:29:18;10.00;99.90
13326;DHT22;6732;51.044;3.746;2022-11-18T06:31:44;10.00;99.90
13326;DHT22;6732;51.044;3.746;2022-11-18T06:34:10;10.00;99.90
13326;DHT22;6732;51.044;3.746;2022-11-18T06:36:36;10.00;99.90
13326;DHT22;6732;51.044;3.746;2022-11-18T06:39:04;10.00;99.90
13326;DHT22;6732;51.044;3.746;2022-11-18T06:41:30;10.00;99.90
13326;DHT22;6732;51.044;3.746;2022-11-18T06:43:56;10.00;99.90
13326;DHT22;6732;51.044;3.746;2022-11-18T06:46:22;10.00;99.90
13326;DHT22;6732;51.044;3.746;2022-11-18T06:49:06;10.00;99.90
13326;DHT22;6732;51.044;3.746;2022-11-18T06:51:32;10.00;99.90
13326;DHT22;6732;51.044;3.746;2022-11-18T06:53:58;10.00;99.90
13326;DHT22;6732;51.044;3.746;2022-11-18T06:56:24;10.00;99.90
13326;DHT22;6732;51.044;3.746;2022-11-18T06:58:55;10.00;99.90
13326;DHT22;6732;51.044;3.746;2022-11-18T07:01:24;10.00;99.90
13326;DHT22;6732;51.044;3.746;2022-11-18T07:03:51;10.10;99.90
13326;DHT22;6732;51.044;3.746;2022-11-18T07:06:22;10.00;99.90
13326;DHT22;6732;51.044;3.746;2022-11-18T07:08:49;10.00;99.90
13326;DHT22;6732;51.044;3.746;2022-11-18T07:11:18;10.00;99.90
13326;DHT22;6732;51.044;3.746;2022-11-18T07:13:44;10.10;99.90
13326;DHT22;6732;51.044;3.746;2022-11-18T07:16:16;10.00;99.90
13326;DHT22;6732;51.044;3.746;2022-11-18T07:18:43;10.10;99.90
13326;DHT22;6732;51.044;3.746;2022-11-18T07:21:15;10.10;99.90
13326;DHT22;6732;51.044;3.746;2022-11-18T07:23:42;10.10;99.90
13326;DHT22;6732;51.044;3.746;2022-11-18T07:26:08;10.10;99.90
13326;DHT22;6732;51.044;3.746;2022-11-18T07:28:34;10.10;99.90
13326;DHT22;6732;51.044;3.746;2022-11-18T07:31:04;10.10;99.90
13326;DHT22;6732;51.044;3.746;2022-11-18T07:33:31;10.10;99.90
13326;DHT22;6732;51.044;3.746;2022-11-18T07:36:05;10.10;99.90
13326;DHT22;6732;51.044;3.746;2022-11-18T07:38:32;10.00;99.90
13326;DHT22;6732;51.044;3.746;2022-11-18T07:41:09;10.10;99.90
13326;DHT22;6732;51.044;3.746;2022-11-18T07:43:37;10.10;99.90
13326;DHT22;6732;51.044;3.746;2022-11-18T07:46:14;10.10;99.90
13326;DHT22;6732;51.044;3.746;2022-11-18T07:48:42;10.10;99.90
13326;DHT22;6732;51.044;3.746;2022-11-18T07:51:09;10.10;99.90
13326;DHT22;6732;51.044;3.746;2022-11-18T07:53:35;10.10;99.90
13326;DHT22;6732;51.044;3.746;2022-11-18T07:56:02;10.10;99.90
13326;DHT22;6732;51.044;3.746;2022-11-18T07:58:29;10.10;99.90
13326;DHT22;6732;51.044;3.746;2022-11-18T08:00:54;10.10;99.90
13326;DHT22;6732;51.044;3.746;2022-11-18T08:03:27;10.10;99.90
13326;DHT22;6732;51.044;3.746;2022-11-18T08:05:58;10.10;99.90
13326;DHT22;6732;51.044;3.746;2022-11-18T08:08:24;10.10;99.90
13326;DHT22;6732;51.044;3.746;2022-11-18T08:10:50;10.20;99.90
13326;DHT22;6732;51.044;3.746;2022-11-18T08:13:19;10.20;99.90
13326;DHT22;6732;51.044;3.746;2022-11-18T08:15:45;10.20;99.90
13326;DHT22;6732;51.044;3.746;2022-11-18T08:18:11;10.20;99.90
13326;DHT22;6732;51.044;3.746;2022-11-18T08:20:37;10.20;99.90
13326;DHT22;6732;51.044;3.746;2022-11-18T08:23:03;10.20;99.90
13326;DHT22;6732;51.044;3.746;2022-11-18T08:25:29;10.20;99.90
13326;DHT22;6732;51.044;3.746;2022-11-18T08:27:55;10.20;99.90
13326;DHT22;6732;51.044;3.746;2022-11-18T08:30:21;10.20;99.90
13326;DHT22;6732;51.044;3.746;2022-11-18T08:32:47;10.20;99.90
13326;DHT22;6732;51.044;3.746;2022-11-18T08:35:13;10.20;99.90
13326;DHT22;6732;51.044;3.746;2022-11-18T08:37:39;10.20;99.90
13326;DHT22;6732;51.044;3.746;2022-11-18T08:40:05;10.20;99.90
13326;DHT22;6732;51.044;3.746;2022-11-18T08:42:31;10.20;99.90
13326;DHT22;6732;51.044;3.746;2022-11-18T08:44:57;10.20;99.90
13326;DHT22;6732;51.044;3.746;2022-11-18T08:47:23;10.20;99.90
13326;DHT22;6732;51.044;3.746;2022-11-18T08:49:49;10.20;99.90
13326;DHT22;6732;51.044;3.746;2022-11-18T08:52:15;10.30;99.90
13326;DHT22;6732;51.044;3.746;2022-11-18T08:54:40;10.20;99.90
13326;DHT22;6732;51.044;3.746;2022-11-18T08:57:06;10.30;99.90
13326;DHT22;6732;51.044;3.746;2022-11-18T08:59:33;10.30;99.90
13326;DHT22;6732;51.044;3.746;2022-11-18T09:01:58;10.30;99.90
13326;DHT22;6732;51.044;3.746;2022-11-18T09:04:24;10.30;99.90
13326;DHT22;6732;51.044;3.746;2022-11-18T09:06:50;10.30;99.90
13326;DHT22;6732;51.044;3.746;2022-11-18T09:09:16;10.30;99.90
13326;DHT22;6732;51.044;3.746;2022-11-18T09:11:42;10.30;99.90
13326;DHT22;6732;51.044;3.746;2022-11-18T09:14:10;10.30;99.90
13326;DHT22;6732;51.044;3.746;2022-11-18T09:16:36;10.30;99.90
13326;DHT22;6732;51.044;3.746;2022-11-18T09:19:02;10.40;99.90
13326;DHT22;6732;51.044;3.746;2022-11-18T09:21:28;10.30;99.90
13326;DHT22;6732;51.044;3.746;2022-11-18T09:23:54;10.40;99.90
13326;DHT22;6732;51.044;3.746;2022-11-18T09:26:22;10.30;99.90
13326;DHT22;6732;51.044;3.746;2022-11-18T09:28:54;10.40;99.90
13326;DHT22;6732;51.044;3.746;2022-11-18T09:31:20;10.40;99.90
13326;DHT22;6732;51.044;3.746;2022-11-18T09:33:46;10.40;99.90
13326;DHT22;6732;51.044;3.746;2022-11-18T09:36:20;10.40;99.90
13326;DHT22;6732;51.044;3.746;2022-11-18T09:38:46;10.40;99.90
13326;DHT22;6732;51.044;3.746;2022-11-18T09:49:20;10.40;99.90
13326;DHT22;6732;51.044;3.746;2022-11-18T09:51:50;10.50;99.90
13326;DHT22;6732;51.044;3.746;2022-11-18T09:54:22;10.40;99.90
13326;DHT22;6732;51.044;3.746;2022-11-18T09:56:51;10.50;99.90
13326;DHT22;6732;51.044;3.746;2022-11-18T09:59:22;10.50;99.90
13326;DHT22;6732;51.044;3.746;2022-11-18T10:01:50;10.50;99.90
13326;DHT22;6732;51.044;3.746;2022-11-18T10:04:20;10.50;99.90
13326;DHT22;6732;51.044;3.746;2022-11-18T10:06:48;10.50;99.90
13326;DHT22;6732;51.044;3.746;2022-11-18T10:12:08;10.50;99.90
13326;DHT22;6732;51.044;3.746;2022-11-18T10:15:20;10.50;99.90
13326;DHT22;6732;51.044;3.746;2022-11-18T10:18:00;10.60;99.90
13326;DHT22;6732;51.044;3.746;2022-11-18T10:21:17;10.60;99.90
13326;DHT22;6732;51.044;3.746;2022-11-18T10:23:28;10.60;99.90
13326;DHT22;6732;51.044;3.746;2022-11-18T10:25:56;10.60;99.90
13326;DHT22;6732;51.044;3.746;2022-11-18T10:28:28;10.60;99.90
13326;DHT22;6732;51.044;3.746;2022-11-18T10:31:03;10.60;99.90
13326;DHT22;6732;51.044;3.746;2022-11-18T10:33:30;10.60;99.90
13326;DHT22;6732;51.044;3.746;2022-11-18T10:36:24;10.60;99.90
13326;DHT22;6732;51.044;3.746;2022-11-18T10:39:10;10.60;99.90
13326;DHT22;6732;51.044;3.746;2022-11-18T10:41:50;10.60;99.90
13326;DHT22;6732;51.044;3.746;2022-11-18T10:46:55;10.60;99.90
13326;DHT22;6732;51.044;3.746;2022-11-18T10:49:21;10.60;99.90
13326;DHT22;6732;51.044;3.746;2022-11-18T10:52:04;10.60;99.90
13326;DHT22;6732;51.044;3.746;2022-11-18T10:54:30;10.70;99.90
13326;DHT22;6732;51.044;3.746;2022-11-18T10:57:18;10.70;99.90
13326;DHT22;6732;51.044;3.746;2022-11-18T10:59:51;10.70;99.90
13326;DHT22;6732;51.044;3.746;2022-11-18T11:04:57;10.70;99.90
13326;DHT22;6732;51.044;3.746;2022-11-18T11:07:26;10.70;99.90
13326;DHT22;6732;51.044;3.746;2022-11-18T11:12:31;10.70;99.90
13326;DHT22;6732;51.044;3.746;2022-11-18T11:15:12;10.70;99.90
13326;DHT22;6732;51.044;3.746;2022-11-18T11:17:46;10.70;99.90
13326;DHT22;6732;51.044;3.746;2022-11-18T11:20:34;10.70;99.90
13326;DHT22;6732;51.044;3.746;2022-11-18T11:23:10;10.70;99.90
13326;DHT22;6732;51.044;3.746;2022-11-18T11:25:53;10.70;99.90
13326;DHT22;6732;51.044;3.746;2022-11-18T11:28:44;10.70;99.90
13326;DHT22;6732;51.044;3.746;2022-11-18T11:34:37;10.70;99.90
13326;DHT22;6732;51.044;3.746;2022-11-18T11:37:28;10.70;99.90
13326;DHT22;6732;51.044;3.746;2022-11-18T11:40:02;10.70;99.90
13326;DHT22;6732;51.044;3.746;2022-11-18T11:50:53;10.70;99.90
13326;DHT22;6732;51.044;3.746;2022-11-18T11:56:17;10.80;99.90
13326;DHT22;6732;51.044;3.746;2022-11-18T12:01:40;10.80;99.90
13326;DHT22;6732;51.044;3.746;2022-11-18T12:06:54;10.80;99.90
13326;DHT22;6732;51.044;3.746;2022-11-18T12:12:01;10.80;99.90
13326;DHT22;6732;51.044;3.746;2022-11-18T12:14:55;10.80;99.90
13326;DHT22;6732;51.044;3.746;2022-11-18T12:17:33;10.80;99.90
13326;DHT22;6732;51.044;3.746;2022-11-18T12:20:35;10.80;99.90
13326;DHT22;6732;51.044;3.746;2022-11-18T12:23:31;10.90;99.90
13326;DHT22;6732;51.044;3.746;2022-11-18T12:33:57;10.90;99.90
13326;DHT22;6732;51.044;3.746;2022-11-18T12:38:56;10.90;99.90
13326;DHT22;6732;51.044;3.746;2022-11-18T12:44:24;10.90;99.90
13326;DHT22;6732;51.044;3.746;2022-11-18T12:46:54;10.90;99.90
13326;DHT22;6732;51.044;3.746;2022-11-18T12:51:59;10.90;99.90
13326;DHT22;6732;51.044;3.746;2022-11-18T12:57:03;10.90;99.90
13326;DHT22;6732;51.044;3.746;2022-11-18T12:59:37;11.00;99.90
13326;DHT22;6732;51.044;3.746;2022-11-18T13:02:27;11.00;99.90
13326;DHT22;6732;51.044;3.746;2022-11-18T13:05:17;10.90;99.90
13326;DHT22;6732;51.044;3.746;2022-11-18T13:10:34;11.00;99.90
13326;DHT22;6732;51.044;3.746;2022-11-18T13:13:03;11.00;99.90
13326;DHT22;6732;51.044;3.746;2022-11-18T13:15:29;11.00;99.90
13326;DHT22;6732;51.044;3.746;2022-11-18T13:18:18;11.00;99.90
13326;DHT22;6732;51.044;3.746;2022-11-18T13:20:58;11.00;99.90
13326;DHT22;6732;51.044;3.746;2022-11-18T13:23:44;11.10;99.90
13326;DHT22;6732;51.044;3.746;2022-11-18T13:26:29;11.10;99.90
13326;DHT22;6732;51.044;3.746;2022-11-18T13:34:12;11.10;99.90
13326;DHT22;6732;51.044;3.746;2022-11-18T13:36:42;11.10;99.90
13326;DHT22;6732;51.044;3.746;2022-11-18T13:39:21;11.10;99.90
13326;DHT22;6732;51.044;3.746;2022-11-18T13:44:29;11.10;99.90
13326;DHT22;6732;51.044;3.746;2022-11-18T13:47:03;11.10;99.90
13326;DHT22;6732;51.044;3.746;2022-11-18T13:49:46;11.10;99.90
13326;DHT22;6732;51.044;3.746;2022-11-18T13:52:22;11.20;99.90
13326;DHT22;6732;51.044;3.746;2022-11-18T13:54:50;11.20;99.90
13326;DHT22;6732;51.044;3.746;2022-11-18T13:57:19;11.20;99.90
13326;DHT22;6732;51.044;3.746;2022-11-18T13:59:47;11.20;99.90
13326;DHT22;6732;51.044;3.746;2022-11-18T14:02:15;11.20;99.90
13326;DHT22;6732;51.044;3.746;2022-11-18T14:04:59;11.20;99.90
13326;DHT22;6732;51.044;3.746;2022-11-18T14:07:32;11.20;99.90
13326;DHT22;6732;51.044;3.746;2022-11-18T14:10:04;11.20;99.90
13326;DHT22;6732;51.044;3.746;2022-11-18T14:12:32;11.20;99.90
13326;DHT22;6732;51.044;3.746;2022-11-18T14:15:32;11.20;99.90
13326;DHT22;6732;51.044;3.746;2022-11-18T14:17:59;11.20;99.90
13326;DHT22;6732;51.044;3.746;2022-11-18T14:20:27;11.30;99.90
13326;DHT22;6732;51.044;3.746;2022-11-18T14:23:01;11.30;99.90
13326;DHT22;6732;51.044;3.746;2022-11-18T14:25:33;11.30;99.90
13326;DHT22;6732;51.044;3.746;2022-11-18T14:28:17;11.30;99.90
13326;DHT22;6732;51.044;3.746;2022-11-18T14:33:37;11.30;99.90
13326;DHT22;6732;51.044;3.746;2022-11-18T14:36:15;11.30;99.90
13326;DHT22;6732;51.044;3.746;2022-11-18T14:38:46;11.30;99.90
13326;DHT22;6732;51.044;3.746;2022-11-18T14:41:15;11.30;99.90
13326;DHT22;6732;51.044;3.746;2022-11-18T14:43:41;11.30;99.90
13326;DHT22;6732;51.044;3.746;2022-11-18T14:46:17;11.30;99.90
13326;DHT22;6732;51.044;3.746;2022-11-18T14:48:44;11.30;99.90
13326;DHT22;6732;51.044;3.746;2022-11-18T14:51:14;11.30;99.90
13326;DHT22;6732;51.044;3.746;2022-11-18T14:53:41;11.30;99.90
13326;DHT22;6732;51.044;3.746;2022-11-18T14:56:27;11.30;99.90
13326;DHT22;6732;51.044;3.746;2022-11-18T14:58:53;11.40;99.90
13326;DHT22;6732;51.044;3.746;2022-11-18T15:01:20;11.30;99.90
13326;DHT22;6732;51.044;3.746;2022-11-18T15:03:46;11.30;99.90
13326;DHT22;6732;51.044;3.746;2022-11-18T15:06:17;11.40;99.90
13326;DHT22;6732;51.044;3.746;2022-11-18T15:08:45;11.30;99.90
13326;DHT22;6732;51.044;3.746;2022-11-18T15:11:12;11.40;99.90
13326;DHT22;6732;51.044;3.746;2022-11-18T15:13:39;11.40;99.90
13326;DHT22;6732;51.044;3.746;2022-11-18T15:16:13;11.40;99.90
13326;DHT22;6732;51.044;3.746;2022-11-18T15:18:41;11.40;99.90
13326;DHT22;6732;51.044;3.746;2022-11-18T15:21:07;11.40;99.90
13326;DHT22;6732;51.044;3.746;2022-11-18T15:23:33;11.40;99.90
13326;DHT22;6732;51.044;3.746;2022-11-18T15:25:59;11.40;99.90
13326;DHT22;6732;51.044;3.746;2022-11-18T15:28:25;11.40;99.90
13326;DHT22;6732;51.044;3.746;2022-11-18T15:30:52;11.40;99.90
13326;DHT22;6732;51.044;3.746;2022-11-18T15:33:18;11.30;99.90
13326;DHT22;6732;51.044;3.746;2022-11-18T15:35:43;11.40;99.90
13326;DHT22;6732;51.044;3.746;2022-11-18T15:38:10;11.40;99.90
13326;DHT22;6732;51.044;3.746;2022-11-18T15:40:36;11.40;99.90
13326;DHT22;6732;51.044;3.746;2022-11-18T15:43:03;11.40;99.90
13326;DHT22;6732;51.044;3.746;2022-11-18T15:45:29;11.30;99.90
13326;DHT22;6732;51.044;3.746;2022-11-18T15:47:55;11.40;99.90
13326;DHT22;6732;51.044;3.746;2022-11-18T15:50:21;11.40;99.90
13326;DHT22;6732;51.044;3.746;2022-11-18T15:52:47;11.30;99.90
13326;DHT22;6732;51.044;3.746;2022-11-18T15:55:13;11.40;99.90
13326;DHT22;6732;51.044;3.746;2022-11-18T15:57:39;11.30;99.90
13326;DHT22;6732;51.044;3.746;2022-11-18T16:00:05;11.30;99.90
13326;DHT22;6732;51.044;3.746;2022-11-18T16:02:31;11.40;99.90
13326;DHT22;6732;51.044;3.746;2022-11-18T16:04:57;11.30;99.90
13326;DHT22;6732;51.044;3.746;2022-11-18T16:07:23;11.30;99.90
13326;DHT22;6732;51.044;3.746;2022-11-18T16:09:49;11.30;99.90
13326;DHT22;6732;51.044;3.746;2022-11-18T16:12:33;11.40;99.90
13326;DHT22;6732;51.044;3.746;2022-11-18T16:15:15;11.30;99.90
13326;DHT22;6732;51.044;3.746;2022-11-18T16:18:01;11.30;99.90
13326;DHT22;6732;51.044;3.746;2022-11-18T16:20:28;11.30;99.90
13326;DHT22;6732;51.044;3.746;2022-11-18T16:22:57;11.30;99.90
13326;DHT22;6732;51.044;3.746;2022-11-18T16:25:23;11.30;99.90
13326;DHT22;6732;51.044;3.746;2022-11-18T16:27:49;11.30;99.90
13326;DHT22;6732;51.044;3.746;2022-11-18T16:30:15;11.30;99.90
13326;DHT22;6732;51.044;3.746;2022-11-18T16:33:00;11.30;99.90
13326;DHT22;6732;51.044;3.746;2022-11-18T16:35:26;11.30;99.90
13326;DHT22;6732;51.044;3.746;2022-11-18T16:37:53;11.30;99.90
13326;DHT22;6732;51.044;3.746;2022-11-18T16:40:19;11.30;99.90
13326;DHT22;6732;51.044;3.746;2022-11-18T16:42:49;11.30;99.90
13326;DHT22;6732;51.044;3.746;2022-11-18T16:45:16;11.30;99.90
13326;DHT22;6732;51.044;3.746;2022-11-18T16:47:42;11.30;99.90
13326;DHT22;6732;51.044;3.746;2022-11-18T16:50:09;11.30;99.90
13326;DHT22;6732;51.044;3.746;2022-11-18T16:52:36;11.30;99.90
13326;DHT22;6732;51.044;3.746;2022-11-18T16:55:02;11.30;99.90
13326;DHT22;6732;51.044;3.746;2022-11-18T16:57:28;11.30;99.90
13326;DHT22;6732;51.044;3.746;2022-11-18T16:59:55;11.30;99.90
13326;DHT22;6732;51.044;3.746;2022-11-18T17:02:22;11.30;99.90
13326;DHT22;6732;51.044;3.746;2022-11-18T17:04:48;11.30;99.90
13326;DHT22;6732;51.044;3.746;2022-11-18T17:07:15;11.30;99.90
13326;DHT22;6732;51.044;3.746;2022-11-18T17:09:42;11.30;99.90
13326;DHT22;6732;51.044;3.746;2022-11-18T17:12:08;11.30;99.90
13326;DHT22;6732;51.044;3.746;2022-11-18T17:14:34;11.30;99.90
13326;DHT22;6732;51.044;3.746;2022-11-18T17:17:02;11.30;99.90
13326;DHT22;6732;51.044;3.746;2022-11-18T17:19:28;11.30;99.90
13326;DHT22;6732;51.044;3.746;2022-11-18T17:21:54;11.30;99.90
13326;DHT22;6732;51.044;3.746;2022-11-18T17:24:21;11.30;99.90
13326;DHT22;6732;51.044;3.746;2022-11-18T17:26:48;11.20;99.90
13326;DHT22;6732;51.044;3.746;2022-11-18T17:29:14;11.30;99.90
13326;DHT22;6732;51.044;3.746;2022-11-18T17:31:40;11.30;99.90
13326;DHT22;6732;51.044;3.746;2022-11-18T17:34:10;11.30;99.90
13326;DHT22;6732;51.044;3.746;2022-11-18T17:36:36;11.30;99.90
13326;DHT22;6732;51.044;3.746;2022-11-18T17:39:02;11.30;99.90
13326;DHT22;6732;51.044;3.746;2022-11-18T17:41:28;11.30;99.90